Time;durP1;ratioP1;P1;durP2;ratioP2;P2;SDS_P1;SDS_P2;PMS_P1;PMS_P2;Temp;Humidity;BMP_temperature;BMP_pressure;BME280_temperature;BME280_humidity;BME280_pressure;Samples;Min_cycle;Max_cycle;Signal;HPM_P1;HPM_P2
2022/06/25 00:01:15;;;;;;;21.13;17.02;;;;;;;;;;5013467;28;20037;-56
2022/06/25 00:03:42;;;;;;;24.23;17.52;;;;;;;;;;5014224;28;20022;-56
2022/06/25 00:06:08;;;;;;;20.60;17.15;;;;;;;;;;5013874;28;20022;-58
2022/06/25 00:08:35;;;;;;;21.48;17.05;;;;;;;;;;5013505;28;20037;-59
2022/06/25 00:11:01;;;;;;;19.05;16.08;;;;;;;;;;5013170;28;20025;-60
2022/06/25 00:13:28;;;;;;;20.17;16.17;;;;;;;;;;5014224;28;20046;-58
2022/06/25 00:15:54;;;;;;;21.55;17.10;;;;;;;;;;5013949;28;20096;-56
2022/06/25 00:18:20;;;;;;;20.42;16.75;;;;;;;;;;5011959;28;20037;-60
2022/06/25 00:20:46;;;;;;;20.85;16.48;;;;;;;;;;5013169;28;20030;-60
2022/06/25 00:23:13;;;;;;;20.42;16.08;;;;;;;;;;5011372;28;20064;-59
2022/06/25 00:25:39;;;;;;;20.83;16.88;;;;;;;;;;5012483;28;20033;-60
2022/06/25 00:28:05;;;;;;;22.33;16.80;;;;;;;;;;5012731;28;20045;-60
2022/06/25 00:30:31;;;;;;;21.27;16.75;;;;;;;;;;5013715;28;20104;-58
2022/06/25 00:32:57;;;;;;;20.23;15.88;;;;;;;;;;5013746;28;20026;-57
2022/06/25 00:35:24;;;;;;;19.52;16.20;;;;;;;;;;5013490;28;20026;-59
2022/06/25 00:37:50;;;;;;;22.75;17.30;;;;;;;;;;5012873;28;20470;-58
2022/06/25 00:40:16;;;;;;;20.83;17.10;;;;;;;;;;5011957;28;20083;-60
2022/06/25 00:42:46;;;;;;;22.20;16.45;;;;;;;;;;5013561;28;20034;-60
2022/06/25 00:45:12;;;;;;;27.75;17.45;;;;;;;;;;5013438;28;20434;-58
2022/06/25 00:47:38;;;;;;;21.13;16.45;;;;;;;;;;5012631;28;20083;-58
2022/06/25 00:50:04;;;;;;;20.15;16.83;;;;;;;;;;5013539;28;20060;-59
2022/06/25 00:52:32;;;;;;;23.75;17.90;;;;;;;;;;5012226;28;20030;-58
2022/06/25 00:55:05;;;;;;;20.50;18.05;;;;;;;;;;5013376;28;20018;-60
2022/06/25 00:57:32;;;;;;;25.42;19.58;;;;;;;;;;5012793;28;20159;-59
2022/06/25 01:00:01;;;;;;;21.70;18.40;;;;;;;;;;5013076;28;20030;-60
2022/06/25 01:02:27;;;;;;;21.73;18.45;;;;;;;;;;5012978;28;20029;-59
2022/06/25 01:04:53;;;;;;;21.20;18.42;;;;;;;;;;5011865;28;20505;-59
2022/06/25 01:07:19;;;;;;;21.20;18.20;;;;;;;;;;5012514;28;20026;-57
2022/06/25 01:09:46;;;;;;;23.75;19.48;;;;;;;;;;5012567;28;20025;-58
2022/06/25 01:12:12;;;;;;;24.10;18.83;;;;;;;;;;5012908;28;20538;-59
2022/06/25 01:14:38;;;;;;;22.10;19.10;;;;;;;;;;5012939;28;20030;-58
2022/06/25 01:17:05;;;;;;;25.85;18.73;;;;;;;;;;5012597;28;20083;-57
2022/06/25 01:22:07;;;;;;;21.30;17.20;;;;;;;;;;5031037;28;20068;-62
2022/06/25 01:24:33;;;;;;;22.08;16.73;;;;;;;;;;5032871;28;20030;-61
2022/06/25 01:26:59;;;;;;;20.92;16.58;;;;;;;;;;5032518;28;20032;-61
2022/06/25 01:29:25;;;;;;;19.58;16.40;;;;;;;;;;5031745;28;20021;-62
2022/06/25 01:31:51;;;;;;;22.00;16.70;;;;;;;;;;5032438;28;20029;-62
2022/06/25 01:34:18;;;;;;;22.00;18.17;;;;;;;;;;5032445;28;20492;-60
2022/06/25 01:36:44;;;;;;;23.63;17.80;;;;;;;;;;5014763;28;20025;-62
2022/06/25 01:39:10;;;;;;;23.00;18.85;;;;;;;;;;5031745;28;20108;-62
2022/06/25 01:41:36;;;;;;;23.50;20.42;;;;;;;;;;5032703;28;20029;-63
2022/06/25 01:44:02;;;;;;;21.92;19.17;;;;;;;;;;5032517;28;20061;-61
2022/06/25 01:46:28;;;;;;;23.33;19.80;;;;;;;;;;5032699;28;20168;-61
2022/06/25 01:48:54;;;;;;;22.92;19.48;;;;;;;;;;5031578;28;20013;-61
2022/06/25 01:51:20;;;;;;;22.27;19.23;;;;;;;;;;5032500;28;20026;-61
2022/06/25 01:53:46;;;;;;;22.15;18.77;;;;;;;;;;5031943;28;20386;-62
2022/06/25 01:56:12;;;;;;;22.08;18.85;;;;;;;;;;5032098;28;20047;-62
2022/06/25 01:58:38;;;;;;;23.55;19.08;;;;;;;;;;5031422;28;20067;-61
2022/06/25 02:01:05;;;;;;;24.30;19.45;;;;;;;;;;5032301;28;20026;-61
2022/06/25 02:03:32;;;;;;;23.50;18.70;;;;;;;;;;5032186;28;20033;-61
2022/06/25 02:05:58;;;;;;;23.25;18.83;;;;;;;;;;5032239;28;20029;-62
2022/06/25 02:08:28;;;;;;;23.85;18.60;;;;;;;;;;5031438;28;20025;-61
2022/06/25 02:10:55;;;;;;;23.85;18.80;;;;;;;;;;5032306;28;20025;-59
2022/06/25 02:13:22;;;;;;;21.83;18.73;;;;;;;;;;5032030;28;20033;-59
2022/06/25 02:15:48;;;;;;;23.30;18.75;;;;;;;;;;5032052;28;20370;-60
2022/06/25 02:18:14;;;;;;;23.17;18.75;;;;;;;;;;5031475;28;20026;-60
2022/06/25 02:20:40;;;;;;;25.02;18.63;;;;;;;;;;5014669;28;20112;-61
2022/06/25 02:23:07;;;;;;;22.27;17.83;;;;;;;;;;5032076;28;20462;-61
2022/06/25 02:25:33;;;;;;;22.83;17.45;;;;;;;;;;5032109;28;20026;-60
2022/06/25 02:27:59;;;;;;;20.63;16.70;;;;;;;;;;5030916;28;20025;-62
2022/06/25 02:30:25;;;;;;;21.90;16.30;;;;;;;;;;5031447;28;20552;-60
2022/06/25 02:32:51;;;;;;;20.35;15.93;;;;;;;;;;5031949;28;20033;-60
2022/06/25 02:35:17;;;;;;;18.35;15.60;;;;;;;;;;5017860;28;20032;-62
2022/06/25 02:37:43;;;;;;;20.02;15.20;;;;;;;;;;5034775;28;20033;-62
2022/06/25 02:40:10;;;;;;;21.00;15.48;;;;;;;;;;5035522;28;20025;-60
2022/06/25 02:42:36;;;;;;;19.60;15.88;;;;;;;;;;5017662;28;20017;-59
2022/06/25 02:45:03;;;;;;;19.15;15.32;;;;;;;;;;5035329;28;20029;-62
2022/06/25 02:47:29;;;;;;;20.40;15.50;;;;;;;;;;5034835;28;20029;-62
2022/06/25 02:49:56;;;;;;;19.85;15.43;;;;;;;;;;5035585;28;20028;-62
2022/06/25 02:52:22;;;;;;;21.90;15.63;;;;;;;;;;5017628;28;20523;-60
2022/06/25 02:54:48;;;;;;;23.27;16.15;;;;;;;;;;5035191;28;20096;-60
2022/06/25 02:59:59;;;;;;;19.35;15.15;;;;;;;;;;5035600;28;20036;-60
2022/06/25 03:02:25;;;;;;;22.63;15.57;;;;;;;;;;5035221;28;20017;-61
2022/06/25 03:04:51;;;;;;;18.55;15.43;;;;;;;;;;5035545;28;20033;-60
2022/06/25 03:07:17;;;;;;;19.73;14.95;;;;;;;;;;5034571;28;20048;-59
2022/06/25 03:09:43;;;;;;;20.23;15.10;;;;;;;;;;5034998;28;20029;-59
2022/06/25 03:12:09;;;;;;;20.92;14.85;;;;;;;;;;5035084;28;20474;-61
2022/06/25 03:14:35;;;;;;;21.48;14.63;;;;;;;;;;5035408;28;20030;-62
2022/06/25 03:17:01;;;;;;;19.27;14.52;;;;;;;;;;5017283;28;20124;-60
2022/06/25 03:19:27;;;;;;;17.50;14.40;;;;;;;;;;5034429;28;20101;-62
2022/06/25 03:21:53;;;;;;;19.13;15.18;;;;;;;;;;5034508;28;20029;-62
2022/06/25 03:24:19;;;;;;;19.63;14.05;;;;;;;;;;5034764;28;20030;-60
2022/06/25 03:26:45;;;;;;;19.77;14.27;;;;;;;;;;5034216;28;20030;-59
2022/06/25 03:29:11;;;;;;;18.35;14.18;;;;;;;;;;5033840;28;20021;-60
2022/06/25 03:31:37;;;;;;;20.38;14.20;;;;;;;;;;5034434;28;20485;-59
2022/06/25 03:34:03;;;;;;;20.65;14.63;;;;;;;;;;5034425;28;20026;-60
2022/06/25 03:36:29;;;;;;;18.30;13.93;;;;;;;;;;5034359;28;20025;-59
2022/06/25 03:38:55;;;;;;;17.42;14.18;;;;;;;;;;5015928;28;20058;-60
2022/06/25 03:41:35;;;;;;;19.65;13.70;;;;;;;;;;5034227;28;20033;-60
2022/06/25 03:44:02;;;;;;;22.95;14.18;;;;;;;;;;5034697;28;20022;-60
2022/06/25 03:46:29;;;;;;;19.98;14.63;;;;;;;;;;5033400;28;20045;-60
2022/06/25 03:48:55;;;;;;;20.85;13.50;;;;;;;;;;5033989;28;20425;-60
2022/06/25 03:51:21;;;;;;;19.38;14.20;;;;;;;;;;5016689;28;20485;-60
2022/06/25 03:53:47;;;;;;;18.20;14.50;;;;;;;;;;5034235;28;20191;-60
2022/06/25 03:56:13;;;;;;;18.58;14.05;;;;;;;;;;5034010;28;20473;-60
2022/06/25 03:58:39;;;;;;;21.10;14.70;;;;;;;;;;5033226;28;20030;-60
2022/06/25 04:01:05;;;;;;;18.52;13.95;;;;;;;;;;5034109;28;20064;-60
2022/06/25 04:03:31;;;;;;;19.55;14.05;;;;;;;;;;5034076;28;20396;-60
2022/06/25 04:05:58;;;;;;;19.35;14.30;;;;;;;;;;5033976;28;20079;-61
2022/06/25 04:08:24;;;;;;;20.25;15.48;;;;;;;;;;5032953;28;20052;-60
2022/06/25 04:10:50;;;;;;;20.05;15.48;;;;;;;;;;5033712;28;20029;-59
2022/06/25 04:13:16;;;;;;;20.83;15.00;;;;;;;;;;5033741;28;20436;-60
2022/06/25 04:15:42;;;;;;;20.83;14.80;;;;;;;;;;5033781;28;20033;-60
2022/06/25 04:18:08;;;;;;;24.17;16.50;;;;;;;;;;5032756;28;20032;-60
2022/06/25 04:20:34;;;;;;;18.33;15.15;;;;;;;;;;5033427;28;20404;-61
2022/06/25 04:23:00;;;;;;;20.02;14.70;;;;;;;;;;5033385;28;20025;-60
2022/06/25 04:25:27;;;;;;;19.55;14.27;;;;;;;;;;5033511;28;20018;-60
2022/06/25 04:30:38;;;;;;;20.67;14.30;;;;;;;;;;5033492;28;20036;-61
2022/06/25 04:33:04;;;;;;;20.83;14.73;;;;;;;;;;5033584;28;20546;-60
2022/06/25 04:35:30;;;;;;;24.02;15.43;;;;;;;;;;5033382;28;20033;-61
2022/06/25 04:37:56;;;;;;;20.80;14.65;;;;;;;;;;5032330;28;20084;-60
2022/06/25 04:40:22;;;;;;;22.23;14.43;;;;;;;;;;5033293;28;20037;-61
2022/06/25 04:42:48;;;;;;;17.80;14.38;;;;;;;;;;5033428;28;20385;-61
2022/06/25 04:45:14;;;;;;;19.15;14.57;;;;;;;;;;5033188;28;20025;-61
2022/06/25 04:47:40;;;;;;;18.10;14.05;;;;;;;;;;5032617;28;20025;-61
2022/06/25 04:50:06;;;;;;;18.35;14.30;;;;;;;;;;5033004;28;20032;-61
2022/06/25 04:52:32;;;;;;;22.05;14.93;;;;;;;;;;5033330;28;20122;-61
2022/06/25 04:54:58;;;;;;;21.30;14.30;;;;;;;;;;5033213;28;20105;-61
2022/06/25 04:57:24;;;;;;;19.48;13.40;;;;;;;;;;5031972;28;20112;-61
2022/06/25 04:59:50;;;;;;;19.75;13.50;;;;;;;;;;5031111;28;20097;-61
2022/06/25 05:02:16;;;;;;;17.80;13.60;;;;;;;;;;5032698;28;20488;-61
2022/06/25 05:04:42;;;;;;;20.48;13.05;;;;;;;;;;5032784;28;20028;-61
2022/06/25 05:07:08;;;;;;;19.92;13.05;;;;;;;;;;5014560;28;20025;-60
2022/06/25 05:09:34;;;;;;;18.30;13.10;;;;;;;;;;5032057;28;20469;-61
2022/06/25 05:12:00;;;;;;;19.38;13.05;;;;;;;;;;5032597;28;20057;-61
2022/06/25 05:14:27;;;;;;;17.20;13.55;;;;;;;;;;5033007;28;20428;-60
2022/06/25 05:16:54;;;;;;;19.80;12.80;;;;;;;;;;5032379;28;20021;-60
2022/06/25 05:19:20;;;;;;;18.00;12.50;;;;;;;;;;5031832;28;20101;-60
2022/06/25 05:21:46;;;;;;;18.60;12.55;;;;;;;;;;5014425;28;20064;-60
2022/06/25 05:24:12;;;;;;;19.25;13.00;;;;;;;;;;5032689;28;20100;-60
2022/06/25 05:26:38;;;;;;;18.65;12.80;;;;;;;;;;5032741;28;20029;-61
2022/06/25 05:29:04;;;;;;;19.83;12.40;;;;;;;;;;5031540;28;20079;-61
2022/06/25 05:31:30;;;;;;;17.65;13.27;;;;;;;;;;5032081;28;20037;-61
2022/06/25 05:33:56;;;;;;;18.67;13.75;;;;;;;;;;5014663;28;20033;-61
2022/06/25 05:36:22;;;;;;;18.35;12.73;;;;;;;;;;5032282;28;20028;-60
2022/06/25 05:38:48;;;;;;;18.35;12.23;;;;;;;;;;5031718;28;20018;-61
2022/06/25 05:41:14;;;;;;;17.88;11.75;;;;;;;;;;5032309;28;20032;-62
2022/06/25 05:43:40;;;;;;;16.40;11.77;;;;;;;;;;5032301;28;20029;-61
2022/06/25 05:46:07;;;;;;;17.98;12.13;;;;;;;;;;5032172;28;20033;-61
2022/06/25 05:48:33;;;;;;;18.13;12.13;;;;;;;;;;5031540;28;20164;-61
2022/06/25 05:50:59;;;;;;;20.65;12.60;;;;;;;;;;5032144;28;20052;-61
2022/06/25 05:53:25;;;;;;;19.85;11.95;;;;;;;;;;5032022;28;20032;-61
2022/06/25 05:55:51;;;;;;;17.60;11.73;;;;;;;;;;5014393;28;20029;-61
2022/06/25 05:58:18;;;;;;;20.65;12.45;;;;;;;;;;5031223;28;20496;-61
2022/06/25 06:00:44;;;;;;;17.20;12.00;;;;;;;;;;5031844;28;20041;-61
2022/06/25 06:03:10;;;;;;;18.17;11.65;;;;;;;;;;5032286;28;20112;-61
2022/06/25 06:05:38;;;;;;;17.45;12.07;;;;;;;;;;5031606;28;20076;-61
2022/06/25 06:08:05;;;;;;;19.63;12.52;;;;;;;;;;5031201;28;20485;-61
2022/06/25 06:10:31;;;;;;;17.40;11.60;;;;;;;;;;5035278;28;20504;-62
2022/06/25 06:12:57;;;;;;;19.65;12.23;;;;;;;;;;5035788;28;20022;-60
2022/06/25 06:15:23;;;;;;;18.98;11.68;;;;;;;;;;5035921;28;20531;-61
2022/06/25 06:17:49;;;;;;;18.55;11.85;;;;;;;;;;5035303;28;20108;-61
2022/06/25 06:20:15;;;;;;;20.88;12.57;;;;;;;;;;5035620;28;20468;-61
2022/06/25 06:22:41;;;;;;;19.13;12.05;;;;;;;;;;5032568;28;20071;-62
2022/06/25 06:25:07;;;;;;;18.73;11.40;;;;;;;;;;5031808;28;20048;-62
2022/06/25 06:27:33;;;;;;;17.55;11.63;;;;;;;;;;5034570;28;20027;-62
2022/06/25 06:29:59;;;;;;;20.00;11.88;;;;;;;;;;5035515;28;20025;-63
2022/06/25 06:32:25;;;;;;;17.08;11.50;;;;;;;;;;5021912;28;20022;-62
2022/06/25 06:34:51;;;;;;;17.60;11.05;;;;;;;;;;5015928;28;20478;-63
2022/06/25 06:37:17;;;;;;;17.08;12.15;;;;;;;;;;5014751;28;20076;-62
2022/06/25 06:39:43;;;;;;;18.00;11.48;;;;;;;;;;5018965;28;20156;-62
2022/06/25 06:42:09;;;;;;;19.75;12.25;;;;;;;;;;5035303;28;20097;-62
2022/06/25 06:44:35;;;;;;;16.58;11.27;;;;;;;;;;5035142;28;20025;-61
2022/06/25 06:47:01;;;;;;;18.17;10.95;;;;;;;;;;5035245;28;20493;-61
2022/06/25 06:49:28;;;;;;;16.98;11.80;;;;;;;;;;5034622;28;20029;-61
2022/06/25 06:51:53;;;;;;;19.10;11.95;;;;;;;;;;5035068;28;20415;-60
2022/06/25 06:54:19;;;;;;;17.80;12.23;;;;;;;;;;5034983;28;20087;-62
2022/06/25 06:56:46;;;;;;;18.80;11.68;;;;;;;;;;5031438;28;20106;-62
2022/06/25 06:59:12;;;;;;;15.98;10.95;;;;;;;;;;5014200;28;20025;-61
2022/06/25 07:01:38;;;;;;;16.55;10.98;;;;;;;;;;5015066;28;20018;-61
2022/06/25 07:04:04;;;;;;;15.70;10.20;;;;;;;;;;5015390;28;20030;-62
2022/06/25 07:06:30;;;;;;;16.40;10.68;;;;;;;;;;4997687;28;20713;-62
2022/06/25 07:08:56;;;;;;;20.35;11.23;;;;;;;;;;4996867;28;20117;-61
2022/06/25 07:11:28;;;;;;;16.40;10.65;;;;;;;;;;5014899;28;20109;-61
2022/06/25 07:13:54;;;;;;;17.80;10.10;;;;;;;;;;5015194;28;20014;-61
2022/06/25 07:16:20;;;;;;;16.85;10.30;;;;;;;;;;5014843;28;20517;-61
2022/06/25 07:18:46;;;;;;;16.90;10.55;;;;;;;;;;5014029;28;20018;-61
2022/06/25 07:21:12;;;;;;;17.08;10.63;;;;;;;;;;5043292;23;20116;-65
2022/06/25 07:23:38;;;;;;;16.15;10.70;;;;;;;;;;5033040;28;20105;-64
2022/06/25 07:26:04;;;;;;;17.17;10.65;;;;;;;;;;5033136;28;20018;-64
2022/06/25 07:28:30;;;;;;;16.63;10.20;;;;;;;;;;5032118;28;20029;-64
2022/06/25 07:30:56;;;;;;;16.17;9.55;;;;;;;;;;5032904;28;20060;-64
2022/06/25 07:33:22;;;;;;;18.40;10.50;;;;;;;;;;5032978;28;20029;-64
2022/06/25 07:35:48;;;;;;;15.45;10.10;;;;;;;;;;5033060;28;20029;-64
2022/06/25 07:38:14;;;;;;;18.00;10.48;;;;;;;;;;5014360;28;20167;-63
2022/06/25 07:40:40;;;;;;;19.60;10.57;;;;;;;;;;5032854;28;20083;-64
2022/06/25 07:43:06;;;;;;;15.52;10.13;;;;;;;;;;5033024;28;20025;-64
2022/06/25 07:45:32;;;;;;;15.10;10.07;;;;;;;;;;5014849;28;20041;-64
2022/06/25 07:47:58;;;;;;;16.27;9.95;;;;;;;;;;5031842;28;20030;-63
2022/06/25 07:53:09;;;;;;;18.65;10.52;;;;;;;;;;5032987;28;20064;-62
2022/06/25 07:55:35;;;;;;;16.13;10.30;;;;;;;;;;5032780;28;20025;-62
2022/06/25 07:58:01;;;;;;;17.35;10.30;;;;;;;;;;5031939;28;20795;-69
2022/06/25 08:00:27;;;;;;;16.13;9.68;;;;;;;;;;5033059;28;20113;-69
2022/06/25 08:02:53;;;;;;;16.30;9.90;;;;;;;;;;5032612;28;20021;-69
2022/06/25 08:05:19;;;;;;;15.70;10.25;;;;;;;;;;5032656;28;20504;-69
2022/06/25 08:07:49;;;;;;;17.75;10.48;;;;;;;;;;5014154;28;20024;-69
2022/06/25 08:10:15;;;;;;;17.10;10.07;;;;;;;;;;5032665;28;20032;-68
2022/06/25 08:12:41;;;;;;;18.67;10.25;;;;;;;;;;5032626;28;20033;-68
2022/06/25 08:15:07;;;;;;;19.10;9.60;;;;;;;;;;5032327;28;20029;-69
2022/06/25 08:17:34;;;;;;;15.85;9.48;;;;;;;;;;5031659;28;20029;-69
2022/06/25 08:20:01;;;;;;;16.42;9.50;;;;;;;;;;5032299;28;20022;-69
2022/06/25 08:22:27;;;;;;;16.92;10.32;;;;;;;;;;5014528;28;20033;-68
2022/06/25 08:24:53;;;;;;;17.75;10.25;;;;;;;;;;5031337;28;20489;-68
2022/06/25 08:27:19;;;;;;;18.83;10.38;;;;;;;;;;5031135;28;20083;-69
2022/06/25 08:29:45;;;;;;;17.63;10.70;;;;;;;;;;5024797;28;20026;-69
2022/06/25 08:32:11;;;;;;;14.90;9.80;;;;;;;;;;5030833;28;20035;-69
2022/06/25 08:34:37;;;;;;;17.80;10.15;;;;;;;;;;5031597;28;20100;-69
2022/06/25 08:37:05;;;;;;;16.08;10.27;;;;;;;;;;5021966;28;20017;-69
2022/06/25 08:39:31;;;;;;;19.92;10.35;;;;;;;;;;5030877;28;20025;-68
2022/06/25 08:42:00;;;;;;;18.02;10.38;;;;;;;;;;5031700;28;20049;-71
2022/06/25 08:44:26;;;;;;;15.40;9.80;;;;;;;;;;5031378;28;20022;-64
2022/06/25 08:46:52;;;;;;;17.67;9.68;;;;;;;;;;5031638;28;20088;-63
2022/06/25 08:49:19;;;;;;;15.10;9.90;;;;;;;;;;5031206;28;20053;-63
2022/06/25 08:51:46;;;;;;;16.30;9.93;;;;;;;;;;5031586;28;20114;-64
2022/06/25 08:54:12;;;;;;;16.48;10.02;;;;;;;;;;5031094;28;20079;-64
2022/06/25 08:56:38;;;;;;;17.42;10.43;;;;;;;;;;5031189;28;20032;-64
2022/06/25 08:59:04;;;;;;;17.80;10.50;;;;;;;;;;5023626;28;20017;-63
2022/06/25 09:01:30;;;;;;;21.15;10.52;;;;;;;;;;5031448;28;20489;-62
2022/06/25 09:03:56;;;;;;;16.02;9.60;;;;;;;;;;5013603;28;20021;-64
2022/06/25 09:06:22;;;;;;;16.08;10.00;;;;;;;;;;5031200;28;20033;-64
2022/06/25 09:09:09;;;;;;;16.23;10.05;;;;;;;;;;5030566;28;20507;-64
2022/06/25 09:11:48;;;;;;;16.23;9.98;;;;;;;;;;5031211;28;20110;-63
2022/06/25 09:14:23;;;;;;;15.95;9.68;;;;;;;;;;5013422;28;20370;-64
2022/06/25 09:17:03;;;;;;;16.00;9.63;;;;;;;;;;5013247;28;20033;-64
2022/06/25 09:19:30;;;;;;;20.73;10.95;;;;;;;;;;5031222;28;20367;-67
2022/06/25 09:21:56;;;;;;;16.70;10.57;;;;;;;;;;5031025;28;20029;-69
2022/06/25 09:24:22;;;;;;;15.77;9.73;;;;;;;;;;5031231;28;20384;-68
2022/06/25 09:26:52;;;;;;;17.08;10.20;;;;;;;;;;5013379;28;20026;-69
2022/06/25 09:29:18;;;;;;;15.57;9.63;;;;;;;;;;5030022;28;20105;-69
2022/06/25 09:31:44;;;;;;;18.42;10.25;;;;;;;;;;5013310;28;20421;-68
2022/06/25 09:34:10;;;;;;;17.90;11.05;;;;;;;;;;5030824;28;20037;-69
2022/06/25 09:36:37;;;;;;;17.25;11.02;;;;;;;;;;5030927;28;20029;-68
2022/06/25 09:39:04;;;;;;;17.33;11.25;;;;;;;;;;5030065;28;20053;-68
2022/06/25 09:41:49;;;;;;;15.95;9.98;;;;;;;;;;5013263;28;20180;-68
2022/06/25 09:44:16;;;;;;;17.88;10.65;;;;;;;;;;5030756;28;20075;-67
2022/06/25 09:46:58;;;;;;;16.52;10.88;;;;;;;;;;5012898;28;20076;-68
2022/06/25 09:49:25;;;;;;;16.60;10.23;;;;;;;;;;5030054;28;20111;-68
2022/06/25 09:52:04;;;;;;;16.50;10.00;;;;;;;;;;5030826;28;20100;-68
2022/06/25 09:54:30;;;;;;;15.65;10.10;;;;;;;;;;5030735;28;20027;-68
2022/06/25 09:56:56;;;;;;;16.88;10.30;;;;;;;;;;5031031;28;20036;-67
2022/06/25 09:59:25;;;;;;;17.23;10.13;;;;;;;;;;5028237;28;20112;-69
2022/06/25 10:01:51;;;;;;;16.70;10.02;;;;;;;;;;5030578;28;20120;-66
2022/06/25 10:04:20;;;;;;;17.73;10.60;;;;;;;;;;5030785;28;20076;-69
2022/06/25 10:06:46;;;;;;;17.92;10.48;;;;;;;;;;5030659;28;20040;-67
2022/06/25 10:09:13;;;;;;;17.08;9.63;;;;;;;;;;5029786;28;20080;-68
2022/06/25 10:11:39;;;;;;;17.33;10.00;;;;;;;;;;5030635;28;20049;-68
2022/06/25 10:14:06;;;;;;;15.45;10.00;;;;;;;;;;5030380;28;20037;-69
2022/06/25 10:16:33;;;;;;;17.77;10.07;;;;;;;;;;5030310;28;20033;-67
2022/06/25 10:19:01;;;;;;;19.90;10.53;;;;;;;;;;5012132;28;20109;-68
2022/06/25 10:21:27;;;;;;;15.55;9.73;;;;;;;;;;5030476;28;20029;-67
2022/06/25 10:23:57;;;;;;;16.65;10.43;;;;;;;;;;5030515;28;20013;-68
2022/06/25 10:26:24;;;;;;;16.73;10.30;;;;;;;;;;5030754;28;20397;-69
2022/06/25 10:28:50;;;;;;;16.75;9.75;;;;;;;;;;5029823;28;20033;-68
2022/06/25 10:31:17;;;;;;;16.13;10.35;;;;;;;;;;5030380;28;20025;-68
2022/06/25 10:33:56;;;;;;;21.13;9.60;;;;;;;;;;5030471;28;20026;-68
2022/06/25 10:36:41;;;;;;;15.85;9.27;;;;;;;;;;5030390;28;20025;-68
2022/06/25 10:39:23;;;;;;;18.13;9.18;;;;;;;;;;5029906;28;20497;-68
2022/06/25 10:44:53;;;;;;;17.48;9.82;;;;;;;;;;5031051;28;20071;-68
2022/06/25 10:47:19;;;;;;;16.50;9.13;;;;;;;;;;5012121;28;20159;-68
2022/06/25 10:49:45;;;;;;;15.57;10.18;;;;;;;;;;5030084;28;20065;-68
2022/06/25 10:52:16;;;;;;;15.65;9.00;;;;;;;;;;5030398;28;20044;-68
2022/06/25 10:54:46;;;;;;;15.82;9.65;;;;;;;;;;5013924;28;20056;-71
2022/06/25 10:57:12;;;;;;;17.10;9.35;;;;;;;;;;4666923;28;10000496;-69
2022/06/25 10:59:41;;;;;;;15.48;9.13;;;;;;;;;;5007925;28;20026;-69
2022/06/25 11:02:08;;;;;;;15.13;9.38;;;;;;;;;;5030131;28;20485;-70
2022/06/25 11:04:35;;;;;;;17.27;10.00;;;;;;;;;;5032797;28;20063;-69
2022/06/25 11:07:10;;;;;;;17.85;9.30;;;;;;;;;;5032413;28;20512;-67
2022/06/25 11:09:37;;;;;;;15.93;9.32;;;;;;;;;;5033346;28;20061;-69
2022/06/25 11:12:03;;;;;;;14.21;8.49;;;;;;;;;;4684015;28;10001289;-67
2022/06/25 11:14:29;;;;;;;15.15;9.10;;;;;;;;;;5030933;28;20092;-69
2022/06/25 11:16:55;;;;;;;14.73;8.77;;;;;;;;;;5014251;28;20489;-68
2022/06/25 11:19:22;;;;;;;18.67;9.27;;;;;;;;;;5012445;28;20126;-68
2022/06/25 11:21:49;;;;;;;15.82;9.80;;;;;;;;;;5030383;28;20036;-68
2022/06/25 11:24:21;;;;;;;15.18;9.10;;;;;;;;;;5030026;28;20610;-68
2022/06/25 11:29:35;;;;;;;15.30;9.40;;;;;;;;;;5030094;28;20041;-71
2022/06/25 11:32:01;;;;;;;15.25;9.60;;;;;;;;;;5012545;28;20052;-69
2022/06/25 11:34:28;;;;;;;16.50;10.20;;;;;;;;;;5030199;28;20195;-69
2022/06/25 11:36:55;;;;;;;16.65;10.13;;;;;;;;;;5011935;28;20029;-70
2022/06/25 11:39:21;;;;;;;16.25;9.48;;;;;;;;;;5029963;28;20045;-69
2022/06/25 11:41:51;;;;;;;14.85;9.60;;;;;;;;;;5028520;28;20353;-69
2022/06/25 11:44:18;;;;;;;20.83;10.10;;;;;;;;;;5030315;28;20121;-70
2022/06/25 11:46:44;;;;;;;15.57;9.70;;;;;;;;;;5030311;28;20481;-69
2022/06/25 11:49:11;;;;;;;16.08;9.63;;;;;;;;;;5029079;28;20017;-69
2022/06/25 11:51:43;;;;;;;15.02;9.73;;;;;;;;;;5010919;28;20021;-68
2022/06/25 11:54:09;;;;;;;14.82;9.77;;;;;;;;;;5030435;28;20391;-70
2022/06/25 11:56:35;;;;;;;17.33;10.00;;;;;;;;;;5030157;28;20024;-69
2022/06/25 11:59:01;;;;;;;16.10;9.88;;;;;;;;;;5029269;28;20029;-69
2022/06/25 12:01:28;;;;;;;16.05;9.80;;;;;;;;;;5029818;28;20441;-70
2022/06/25 12:03:54;;;;;;;15.60;9.90;;;;;;;;;;5029370;28;20087;-70
2022/06/25 12:06:22;;;;;;;15.35;9.40;;;;;;;;;;5027570;28;20037;-71
2022/06/25 12:08:48;;;;;;;16.85;10.80;;;;;;;;;;5028316;28;20544;-70
2022/06/25 12:11:14;;;;;;;14.77;9.60;;;;;;;;;;5029219;28;20021;-71
2022/06/25 12:13:40;;;;;;;15.07;9.85;;;;;;;;;;5028744;28;20063;-69
2022/06/25 12:16:06;;;;;;;15.90;9.75;;;;;;;;;;5029064;28;20029;-71
2022/06/25 12:18:40;;;;;;;14.73;9.50;;;;;;;;;;5011008;28;20036;-70
2022/06/25 12:21:07;;;;;;;15.40;9.50;;;;;;;;;;5029096;28;20033;-68
2022/06/25 12:23:52;;;;;;;14.85;9.65;;;;;;;;;;5029110;28;20061;-69
2022/06/25 12:26:31;;;;;;;14.75;9.32;;;;;;;;;;4992233;28;20033;-70
2022/06/25 12:29:14;;;;;;;16.88;9.65;;;;;;;;;;4991964;28;20038;-69
2022/06/25 12:31:42;;;;;;;14.85;9.65;;;;;;;;;;4993183;28;20386;-69
2022/06/25 12:34:08;;;;;;;16.00;10.00;;;;;;;;;;5010312;28;20069;-70
2022/06/25 12:36:36;;;;;;;16.08;10.30;;;;;;;;;;5010402;28;20033;-70
2022/06/25 12:39:02;;;;;;;17.38;9.80;;;;;;;;;;5010111;28;20072;-71
2022/06/25 12:41:47;;;;;;;15.05;9.68;;;;;;;;;;4992191;28;20030;-70
2022/06/25 12:44:14;;;;;;;16.90;10.00;;;23.90;99.90;;;;;;5010167;28;20033;-71
2022/06/25 12:46:40;;;;;;;16.55;10.27;;;;;;;;;;5010146;28;20049;-70
2022/06/25 12:49:06;;;;;;;14.40;9.80;;;34.60;66.20;;;;;;5008646;28;20112;-70
2022/06/25 12:51:32;;;;;;;15.52;9.93;;;35.50;64.00;;;;;;5008988;28;20080;-70
2022/06/25 12:53:58;;;;;;;15.75;9.88;;;33.80;64.10;;;;;;5009103;28;20041;-71
2022/06/25 12:56:23;;;;;;;15.65;10.23;;;33.40;64.80;;;;;;5025135;28;20026;-70
2022/06/25 12:58:49;;;;;;;15.68;10.20;;;33.10;63.90;;;;;;5028245;28;20428;-69
2022/06/25 13:01:26;;;;;;;15.75;10.75;;;32.90;64.30;;;;;;5028874;28;20418;-71
2022/06/25 13:03:52;;;;;;;15.90;10.30;;;34.00;63.50;;;;;;5030750;28;20101;-71
2022/06/25 13:06:19;;;;;;;16.33;10.40;;;34.40;62.20;;;;;;5015222;28;20152;-72
2022/06/25 13:08:45;;;;;;;15.83;11.13;;;;;;;;;;5031502;28;20040;-71
2022/06/25 13:11:18;;;;;;;16.98;10.52;;;;;;;;;;5031851;28;20025;-73
2022/06/25 13:13:45;;;;;;;16.05;10.23;;;;;;;;;;5034789;28;20048;-72
2022/06/25 13:16:11;;;;;;;15.43;9.60;;;;;;;;;;5033995;28;20037;-73
2022/06/25 13:18:37;;;;;;;14.80;9.65;;;;;;;;;;5014983;28;20029;-72
2022/06/25 13:21:03;;;;;;;17.00;10.00;;;35.30;62.70;;;;;;5056768;22;20500;-62
2022/06/25 13:23:29;;;;;;;18.15;10.80;;;35.50;60.30;;;;;;5009036;28;20117;-61
2022/06/25 13:25:54;;;;;;;15.38;10.30;;;35.10;59.70;;;;;;5008125;28;20359;-59
2022/06/25 13:28:20;;;;;;;16.38;10.73;;;35.70;59.60;;;;;;5008121;28;20095;-60
2022/06/25 13:30:45;;;;;;;15.48;10.10;;;34.80;59.40;;;;;;5008811;28;20034;-58
2022/06/25 13:33:11;;;;;;;15.20;10.23;;;33.90;59.40;;;;;;5008613;28;20137;-60
2022/06/25 13:35:37;;;;;;;17.90;10.43;;;33.60;59.60;;;;;;5008655;28;20034;-58
2022/06/25 13:38:02;;;;;;;14.93;10.10;;;34.00;59.40;;;;;;5007557;28;20046;-59
2022/06/25 13:40:28;;;;;;;14.68;10.35;;;;;;;;;;4991294;28;20157;-59
2022/06/25 13:42:54;;;;;;;15.40;10.90;;;35.00;60.20;;;;;;4991162;28;20018;-60
2022/06/25 13:45:20;;;;;;;15.07;10.75;;;;;;;;;;5009045;28;20020;-63
2022/06/25 13:47:46;;;;;;;15.05;10.48;;;36.60;58.60;;;;;;5008186;28;20029;-61
2022/06/25 13:50:12;;;;;;;17.45;10.50;;;;;;;;;;4991384;28;20040;-62
2022/06/25 13:52:38;;;;;;;16.13;10.88;;;;;;;;;;5009219;28;20030;-62
2022/06/25 13:55:04;;;;;;;15.13;10.32;;;;;;;;;;5009233;28;20098;-63
2022/06/25 13:57:30;;;;;;;15.82;10.60;;;;;;;;;;5008052;28;20474;-63
2022/06/25 13:59:56;;;;;;;16.90;10.93;;;;;;;;;;5007945;28;20033;-62
2022/06/25 14:02:22;;;;;;;17.05;10.88;;;35.20;56.90;;;;;;5008277;28;20030;-62
2022/06/25 14:04:48;;;;;;;16.35;10.70;;;;;;;;;;5008644;28;20025;-64
2022/06/25 14:07:13;;;;;;;15.52;10.48;;;36.70;56.70;;;;;;4990692;28;20059;-61
2022/06/25 14:09:39;;;;;;;15.55;10.80;;;34.60;58.10;;;;;;5008696;28;20048;-62
2022/06/25 14:12:05;;;;;;;17.73;11.20;;;;;;;;;;4990599;28;20034;-63
2022/06/25 14:14:32;;;;;;;18.20;11.30;;;;;;;;;;5008643;28;20034;-65
2022/06/25 14:16:58;;;;;;;16.73;10.60;;;;;;;;;;5008686;28;20037;-62
2022/06/25 14:19:25;;;;;;;16.23;11.18;;;;;;;;;;5007981;28;20134;-62
2022/06/25 14:21:51;;;;;;;14.82;10.60;;;;;;;;;;5008050;28;20475;-63
2022/06/25 14:25:20;;;;;;;15.98;10.88;;;;;;;;;;5008197;28;20052;-63
2022/06/25 14:27:04;;;;;;;16.30;10.80;;;;;;;;;;5008110;28;20079;-62